Time;durP1;ratioP1;P1;durP2;ratioP2;P2;SDS_P1;SDS_P2;PMS_P1;PMS_P2;Temp;Humidity;BMP_temperature;BMP_pressure;BME280_temperature;BME280_humidity;BME280_pressure;Samples;Min_cycle;Max_cycle;Signal;HPM_P1;HPM_P2
2024/04/23 00:00:29;;;;;;;2.85;1.90;;;6.30;70.80;;;;;;5477767;26;19995;-75
2024/04/23 00:02:55;;;;;;;2.47;2.15;;;6.20;72.30;;;;;;5477317;26;19994;-75
2024/04/23 00:05:21;;;;;;;3.25;2.22;;;6.20;74.70;;;;;;5476540;26;19986;-75
2024/04/23 00:07:46;;;;;;;4.72;2.28;;;6.10;75.20;;;;;;5449922;26;20005;-75
2024/04/23 00:10:12;;;;;;;4.15;2.42;;;6.10;77.00;;;;;;5483980;26;20357;-75
2024/04/23 00:12:37;;;;;;;6.32;1.73;;;6.10;77.80;;;;;;5485003;26;20005;-75
2024/04/23 00:15:03;;;;;;;2.47;1.83;;;6.00;78.30;;;;;;5484085;26;20005;-75
2024/04/23 00:17:29;;;;;;;2.30;2.10;;;5.80;81.50;;;;;;5452585;26;20064;-75
2024/04/23 00:19:55;;;;;;;3.47;2.30;;;5.80;81.80;;;;;;5452773;26;20453;-75
2024/04/23 00:22:20;;;;;;;3.15;2.05;;;5.40;85.40;;;;;;5484609;26;19995;-75
2024/04/23 00:24:46;;;;;;;2.90;2.08;;;5.70;88.60;;;;;;5483729;26;19996;-75
2024/04/23 00:27:11;;;;;;;4.50;2.30;;;5.60;89.70;;;;;;5485017;26;19994;-75
2024/04/23 00:29:37;;;;;;;2.78;1.75;;;5.50;91.60;;;;;;5484519;26;20081;-75
2024/04/23 00:32:03;;;;;;;4.93;2.65;;;5.50;93.90;;;;;;5452254;26;20001;-75
2024/04/23 00:34:28;;;;;;;3.20;1.95;;;5.40;95.40;;;;;;5483562;26;19997;-75
2024/04/23 00:36:56;;;;;;;1.98;1.88;;;5.30;97.80;;;;;;5452511;26;20408;-75
2024/04/23 00:39:22;;;;;;;6.25;2.92;;;5.40;99.90;;;;;;5452285;26;20008;-75
2024/04/23 00:41:47;;;;;;;2.90;2.50;;;5.30;99.70;;;;;;5451980;26;19990;-75
2024/04/23 00:44:13;;;;;;;4.78;2.40;;;5.30;99.90;;;;;;5483539;26;20489;-75
2024/04/23 00:46:39;;;;;;;3.35;2.55;;;5.30;99.90;;;;;;5484243;26;20022;-75
2024/04/23 00:49:13;;;;;;;2.55;2.08;;;5.10;99.90;;;;;;5483350;26;20006;-74
2024/04/23 00:51:49;;;;;;;3.20;2.20;;;5.10;99.90;;;;;;5483845;26;20002;-75
2024/04/23 00:54:17;;;;;;;3.15;2.67;;;4.90;99.90;;;;;;5451362;26;19994;-74
2024/04/23 00:56:43;;;;;;;5.00;2.58;;;4.80;99.90;;;;;;5451829;26;20006;-74
2024/04/23 00:59:12;;;;;;;4.72;3.10;;;4.60;99.90;;;;;;5484364;26;20010;-74
2024/04/23 01:01:38;;;;;;;7.55;2.90;;;4.60;99.90;;;;;;5483956;26;19994;-74
2024/04/23 01:04:05;;;;;;;7.13;2.85;;;4.60;99.90;;;;;;5451090;26;20351;-74
2024/04/23 01:06:31;;;;;;;3.92;2.80;;;4.50;99.90;;;;;;5483890;26;20352;-74
2024/04/23 01:08:57;;;;;;;4.43;2.70;;;4.50;99.90;;;;;;5452012;26;20006;-74
2024/04/23 01:11:23;;;;;;;3.97;2.92;;;4.50;99.90;;;;;;5483656;26;20001;-74
2024/04/23 01:13:49;;;;;;;5.05;2.70;;;4.40;99.90;;;;;;5483073;26;20015;-74
2024/04/23 01:16:16;;;;;;;3.97;2.83;;;4.30;99.90;;;;;;5483995;26;19990;-74
2024/04/23 01:18:44;;;;;;;4.70;3.25;;;4.20;99.90;;;;;;5480107;26;19994;-74
2024/04/23 01:21:13;;;;;;;4.97;2.85;;;4.20;99.90;;;;;;5479408;26;20006;-74
2024/04/23 01:23:58;;;;;;;3.42;3.00;;;4.10;99.90;;;;;;5447601;26;20022;-74
2024/04/23 01:26:25;;;;;;;5.30;3.42;;;4.00;99.90;;;;;;5480019;26;19990;-74
2024/04/23 01:28:52;;;;;;;4.18;3.17;;;4.00;99.90;;;;;;5479452;26;19995;-74
2024/04/23 01:31:18;;;;;;;6.30;2.88;;;4.20;99.90;;;;;;5445469;26;20009;-74
2024/04/23 01:33:46;;;;;;;4.10;3.60;;;4.00;99.90;;;;;;5479048;26;19998;-75
2024/04/23 01:36:12;;;;;;;5.55;3.55;;;3.80;99.90;;;;;;5479755;26;20068;-74
2024/04/23 01:38:40;;;;;;;4.97;3.25;;;3.80;99.90;;;;;;5479571;26;20345;-74
2024/04/23 01:41:05;;;;;;;6.93;4.10;;;3.80;99.90;;;;;;5479131;26;20121;-74
2024/04/23 01:43:32;;;;;;;4.15;3.38;;;3.90;99.90;;;;;;5447358;26;20063;-74
2024/04/23 01:45:58;;;;;;;5.93;4.28;;;3.80;99.90;;;;;;5478476;26;20058;-74
2024/04/23 01:48:24;;;;;;;5.85;3.40;;;3.90;99.90;;;;;;5479149;26;20005;-74
2024/04/23 01:50:50;;;;;;;5.88;4.50;;;4.00;99.90;;;;;;5447051;26;19995;-74
2024/04/23 01:53:16;;;;;;;6.25;4.53;;;3.90;99.90;;;;;;5479302;26;20065;-74
2024/04/23 01:55:41;;;;;;;6.45;4.10;;;3.90;99.90;;;;;;5478507;26;20002;-74
2024/04/23 01:58:07;;;;;;;6.53;4.18;;;3.90;99.90;;;;;;5453301;26;20476;-74
2024/04/23 02:00:36;;;;;;;6.15;4.43;;;3.80;99.90;;;;;;5442150;26;20003;-74
2024/04/23 02:03:03;;;;;;;6.35;3.55;;;3.90;99.90;;;;;;5443067;26;20002;-74
2024/04/23 02:05:30;;;;;;;6.57;4.50;;;3.80;99.90;;;;;;5441676;26;20007;-74
2024/04/23 02:07:56;;;;;;;6.88;3.88;;;3.90;99.90;;;;;;5442832;26;20010;-74
2024/04/23 02:10:21;;;;;;;5.45;4.38;;;3.90;99.90;;;;;;5442405;26;19999;-74
2024/04/23 02:12:47;;;;;;;6.00;3.80;;;4.00;99.90;;;;;;5409136;26;19995;-74
2024/04/23 02:15:13;;;;;;;7.38;4.13;;;4.00;99.90;;;;;;5410571;26;20040;-74
2024/04/23 02:17:39;;;;;;;5.88;4.07;;;3.90;99.90;;;;;;5442726;26;20006;-74
2024/04/23 02:20:05;;;;;;;7.35;3.97;;;4.00;99.90;;;;;;5450744;26;20332;-74
2024/04/23 02:22:31;;;;;;;5.18;3.72;;;3.80;99.90;;;;;;5457313;26;19991;-74
2024/04/23 02:24:56;;;;;;;6.25;4.35;;;4.00;99.90;;;;;;5467427;26;20461;-74
2024/04/23 02:27:22;;;;;;;6.18;4.35;;;3.90;99.90;;;;;;5431845;26;20019;-74
2024/04/23 02:29:48;;;;;;;6.68;4.15;;;4.00;99.90;;;;;;5477781;26;20026;-74
2024/04/23 02:32:13;;;;;;;6.20;3.83;;;4.00;99.90;;;;;;5478467;26;20005;-74
2024/04/23 02:34:39;;;;;;;6.03;3.85;;;4.00;99.90;;;;;;5445871;26;19998;-74
2024/04/23 02:37:04;;;;;;;6.07;4.20;;;4.00;99.90;;;;;;5478489;26;19998;-74
2024/04/23 02:39:30;;;;;;;7.22;4.38;;;4.10;99.90;;;;;;5478328;26;19994;-74
2024/04/23 02:41:56;;;;;;;7.25;4.07;;;4.10;99.90;;;;;;5478668;26;19990;-75
2024/04/23 02:44:21;;;;;;;5.70;3.92;;;4.10;99.90;;;;;;5434673;26;20006;-74
2024/04/23 02:46:47;;;;;;;6.50;4.55;;;4.20;99.90;;;;;;5470124;26;20848;-74
2024/04/23 02:49:13;;;;;;;7.00;4.65;;;4.10;99.90;;;;;;5478269;26;19994;-74
2024/04/23 02:51:55;;;;;;;4.30;3.90;;;4.10;99.90;;;;;;5446229;26;20068;-74
2024/04/23 02:54:21;;;;;;;7.88;4.18;;;4.10;99.90;;;;;;5475556;26;20002;-74
2024/04/23 02:56:48;;;;;;;6.43;3.83;;;4.10;99.90;;;;;;5446175;26;20010;-74
2024/04/23 02:59:15;;;;;;;5.38;3.65;;;4.10;99.90;;;;;;5446413;26;19998;-74
2024/04/23 03:01:40;;;;;;;5.88;3.80;;;4.10;99.90;;;;;;5478284;26;20010;-74
2024/04/23 03:04:06;;;;;;;6.60;4.18;;;4.00;99.90;;;;;;5464196;26;20364;-74
2024/04/23 03:06:31;;;;;;;5.00;3.53;;;4.00;99.90;;;;;;5465978;26;20070;-74
2024/04/23 03:08:58;;;;;;;6.30;4.03;;;4.00;99.90;;;;;;5478175;26;20833;-74
2024/04/23 03:11:23;;;;;;;5.32;3.72;;;4.10;99.90;;;;;;5477858;26;20421;-74
2024/04/23 03:13:49;;;;;;;6.57;4.15;;;4.00;99.90;;;;;;5477576;26;19998;-75
2024/04/23 03:16:15;;;;;;;7.28;4.13;;;4.20;99.90;;;;;;5478133;26;19998;-75
2024/04/23 03:18:40;;;;;;;6.05;3.88;;;4.00;99.90;;;;;;5477895;26;20006;-74
2024/04/23 03:21:06;;;;;;;6.72;4.13;;;4.00;99.90;;;;;;5445759;26;20013;-74
2024/04/23 03:23:32;;;;;;;5.97;3.75;;;4.00;99.90;;;;;;5445877;26;19992;-74
2024/04/23 03:25:57;;;;;;;4.95;3.85;;;4.00;99.90;;;;;;5477058;26;19990;-74
2024/04/23 03:28:23;;;;;;;7.47;4.35;;;4.00;99.90;;;;;;5477869;26;19998;-74
2024/04/23 03:30:48;;;;;;;7.57;4.03;;;4.00;99.90;;;;;;5477414;26;20456;-75
2024/04/23 03:33:14;;;;;;;5.13;3.53;;;3.90;99.90;;;;;;5477870;26;19998;-74
2024/04/23 03:35:39;;;;;;;6.28;3.88;;;4.00;99.90;;;;;;5443002;26;20002;-74
2024/04/23 03:38:05;;;;;;;4.90;3.47;;;4.00;99.90;;;;;;5477397;26;20026;-74
2024/04/23 03:40:31;;;;;;;4.95;3.88;;;4.00;99.90;;;;;;5477160;26;20349;-74
2024/04/23 03:42:57;;;;;;;7.22;4.20;;;4.00;99.90;;;;;;5476595;26;20002;-74
2024/04/23 03:45:22;;;;;;;5.90;3.70;;;4.10;99.90;;;;;;5477081;26;19998;-74
2024/04/23 03:47:48;;;;;;;6.18;4.20;;;4.10;99.90;;;;;;5477302;26;20033;-74
2024/04/23 03:50:14;;;;;;;4.13;3.70;;;4.10;99.90;;;;;;5475286;26;19999;-74
2024/04/23 03:52:39;;;;;;;5.65;4.15;;;3.90;99.90;;;;;;5476456;26;19998;-74
2024/04/23 03:55:05;;;;;;;6.20;3.78;;;4.00;99.90;;;;;;5443335;26;20009;-74
2024/04/23 03:57:30;;;;;;;6.30;3.75;;;4.00;99.90;;;;;;5477451;26;20452;-74
2024/04/23 03:59:56;;;;;;;5.03;3.67;;;4.10;99.90;;;;;;5445322;26;19998;-74
2024/04/23 04:07:50;;;;;;;8.00;3.97;;;4.10;99.90;;;;;;5476893;26;20005;-74
2024/04/23 04:10:15;;;;;;;3.63;3.13;;;4.10;99.90;;;;;;5477208;26;20344;-75
2024/04/23 04:12:41;;;;;;;5.15;3.42;;;4.10;99.90;;;;;;5476915;26;20504;-74
2024/04/23 04:15:07;;;;;;;4.15;3.10;;;4.10;99.90;;;;;;5444108;26;20006;-75
2024/04/23 04:17:32;;;;;;;6.43;3.72;;;4.10;99.90;;;;;;5477168;26;19994;-75
2024/04/23 04:19:58;;;;;;;4.85;3.30;;;4.10;99.90;;;;;;5444609;26;19998;-74
2024/04/23 04:22:24;;;;;;;4.28;3.42;;;4.10;99.90;;;;;;5444258;26;20425;-74
2024/04/23 04:24:50;;;;;;;4.38;3.50;;;4.10;99.90;;;;;;5476093;26;19999;-74
2024/04/23 04:27:15;;;;;;;4.13;3.63;;;4.10;99.90;;;;;;5444760;26;19998;-74
2024/04/23 04:29:41;;;;;;;6.30;3.63;;;4.10;99.90;;;;;;5477078;26;19998;-75
2024/04/23 04:32:09;;;;;;;4.65;3.58;;;4.20;99.90;;;;;;5475770;26;20002;-74
2024/04/23 04:34:35;;;;;;;5.70;3.30;;;4.10;99.90;;;;;;5474895;26;19998;-74
2024/04/23 04:37:01;;;;;;;4.03;3.08;;;4.10;99.90;;;;;;5443582;26;19998;-74
2024/04/23 04:39:26;;;;;;;4.90;3.33;;;4.20;99.90;;;;;;5476702;26;19994;-74
2024/04/23 04:41:52;;;;;;;4.40;3.15;;;4.10;99.90;;;;;;5477124;26;20001;-74
2024/04/23 04:44:17;;;;;;;5.18;3.67;;;4.10;99.90;;;;;;5475588;26;20005;-74
2024/04/23 04:46:43;;;;;;;5.88;3.55;;;4.10;99.90;;;;;;5444582;26;20329;-74
2024/04/23 04:49:09;;;;;;;3.63;2.67;;;4.10;99.90;;;;;;5476652;26;19998;-74
2024/04/23 04:51:34;;;;;;;5.97;3.90;;;4.20;99.90;;;;;;5476027;26;20783;-74
2024/04/23 04:54:00;;;;;;;8.20;3.78;;;4.20;99.90;;;;;;5478685;26;19998;-74
2024/04/23 04:56:29;;;;;;;6.30;4.07;;;4.20;99.90;;;;;;5471742;26;19998;-75
2024/04/23 04:58:54;;;;;;;6.25;4.03;;;4.20;99.90;;;;;;5424240;26;20075;-74
2024/04/23 05:01:20;;;;;;;5.25;3.78;;;5.90;99.90;;;;;;5441081;26;20003;-72
2024/04/23 05:03:45;;;;;;;5.03;3.75;;;6.80;99.90;;;;;;5469742;26;20575;-72
2024/04/23 05:06:11;;;;;;;5.55;3.97;;;6.80;99.90;;;;;;5462273;26;19994;-72
2024/04/23 05:08:37;;;;;;;6.88;4.70;;;7.20;99.90;;;;;;5408757;26;19999;-73
2024/04/23 05:11:02;;;;;;;6.93;4.95;;;7.10;99.90;;;;;;5458838;26;20017;-73
2024/04/23 05:13:28;;;;;;;5.00;3.83;;;7.40;99.90;;;;;;5426547;26;20465;-73
2024/04/23 05:15:53;;;;;;;5.00;3.55;;;7.50;99.90;;;;;;5439564;26;20006;-72
2024/04/23 05:18:19;;;;;;;4.47;3.78;;;8.10;99.90;;;;;;5447538;26;19998;-72
2024/04/23 05:20:45;;;;;;;3.83;2.72;;;8.20;99.90;;;;;;5479386;26;20006;-73
2024/04/23 05:23:10;;;;;;;3.88;2.75;;;8.20;99.90;;;;;;5480048;26;20008;-73
2024/04/23 05:25:36;;;;;;;4.05;2.65;;;7.80;99.90;;;;;;5478766;26;20009;-72
2024/04/23 05:28:01;;;;;;;2.58;2.33;;;7.70;99.90;;;;;;5479862;26;20089;-73
2024/04/23 05:33:11;;;;;;;2.25;2.05;;;7.70;99.90;;;;;;5479413;26;20010;-73
2024/04/23 05:35:37;;;;;;;2.60;2.15;;;7.30;99.90;;;;;;5446762;26;20010;-73
2024/04/23 05:38:02;;;;;;;3.15;2.83;;;7.40;99.90;;;;;;5455406;26;20035;-73
2024/04/23 05:40:28;;;;;;;4.22;2.50;;;7.70;99.90;;;;;;5432126;26;20001;-73
2024/04/23 05:42:53;;;;;;;2.90;2.53;;;7.60;99.90;;;;;;5479658;26;19990;-73
2024/04/23 05:45:19;;;;;;;3.13;2.53;;;7.20;99.90;;;;;;5431529;26;20034;-73
2024/04/23 05:48:22;;;;;;;2.50;2.25;;;7.30;99.90;;;;;;5479413;26;19990;-73
2024/04/23 05:51:26;;;;;;;2.85;2.53;;;7.20;99.90;;;;;;5446767;26;19998;-73
2024/04/23 05:54:29;;;;;;;2.42;2.22;;;7.40;99.90;;;;;;5473984;26;19998;-73
2024/04/23 05:56:54;;;;;;;4.13;2.22;;;7.90;99.90;;;;;;5450561;26;20469;-73
2024/04/23 05:59:20;;;;;;;3.65;2.53;;;7.40;99.90;;;;;;5411273;26;19995;-73
2024/04/23 06:01:45;;;;;;;3.40;2.13;;;7.40;99.90;;;;;;5442831;26;20063;-73
2024/04/23 06:04:11;;;;;;;2.25;1.98;;;7.10;99.90;;;;;;5440899;26;20360;-73
2024/04/23 06:06:37;;;;;;;3.03;2.35;;;7.00;99.90;;;;;;5442338;26;19999;-73
2024/04/23 06:09:03;;;;;;;3.58;2.28;;;7.10;99.90;;;;;;5436805;26;20072;-73
2024/04/23 06:11:29;;;;;;;2.72;2.00;;;7.40;99.90;;;;;;5435984;26;20007;-73
2024/04/23 06:14:08;;;;;;;1.77;1.55;;;7.50;99.90;;;;;;5434483;26;20002;-73
2024/04/23 06:16:34;;;;;;;2.10;1.60;;;7.10;99.90;;;;;;5452473;26;19994;-72
2024/04/23 06:19:00;;;;;;;1.98;1.60;;;7.10;99.90;;;;;;5431866;26;19994;-73
2024/04/23 06:21:26;;;;;;;4.78;3.45;;;6.60;99.90;;;;;;5478622;26;19998;-73
2024/04/23 06:23:52;;;;;;;2.00;1.88;;;6.60;99.90;;;;;;5461547;26;20030;-72
2024/04/23 06:26:17;;;;;;;2.67;2.17;;;6.70;99.90;;;;;;5475285;26;19999;-72
2024/04/23 06:28:43;;;;;;;1.58;1.38;;;7.00;99.90;;;;;;5477700;26;20013;-72
2024/04/23 06:31:12;;;;;;;1.50;1.38;;;7.20;99.90;;;;;;5446302;26;19990;-72
2024/04/23 06:33:38;;;;;;;1.92;1.40;;;7.20;99.90;;;;;;5478492;26;20092;-72
2024/04/23 06:36:04;;;;;;;1.52;1.38;;;6.90;99.90;;;;;;5477899;26;19998;-72
2024/04/23 06:38:29;;;;;;;2.00;1.50;;;7.10;99.90;;;;;;5478829;26;20089;-72
2024/04/23 06:40:55;;;;;;;2.03;1.38;;;7.10;99.90;;;;;;5426747;26;20408;-72
2024/04/23 06:43:21;;;;;;;2.53;1.48;;;7.10;99.90;;;;;;5430607;26;20008;-73
2024/04/23 06:45:49;;;;;;;1.67;1.10;;;7.20;99.90;;;;;;5407852;26;20079;-72
2024/04/23 06:48:15;;;;;;;3.13;1.92;;;7.40;99.90;;;;;;5447993;26;20684;-72
2024/04/23 06:50:44;;;;;;;1.73;1.63;;;7.20;99.90;;;;;;5430091;26;19999;-73
2024/04/23 06:53:10;;;;;;;2.42;1.58;;;7.40;99.90;;;;;;5463203;26;20048;-73
2024/04/23 06:55:36;;;;;;;1.27;1.17;;;7.30;99.90;;;;;;5445078;26;20002;-73
2024/04/23 06:58:02;;;;;;;1.63;1.52;;;7.40;99.90;;;;;;5443468;26;20074;-73
2024/04/23 07:00:28;;;;;;;1.38;1.05;;;7.40;99.90;;;;;;5455982;26;20009;-73
2024/04/23 07:02:53;;;;;;;1.42;1.33;;;6.50;99.90;;;;;;5442458;26;20005;-73
2024/04/23 07:05:19;;;;;;;2.75;1.60;;;6.20;99.90;;;;;;5409588;26;20005;-73
2024/04/23 07:07:44;;;;;;;1.58;1.48;;;5.80;99.90;;;;;;5410391;26;19994;-73
2024/04/23 07:10:10;;;;;;;1.95;1.50;;;5.60;99.90;;;;;;5441813;26;19998;-73
2024/04/23 07:12:36;;;;;;;5.10;1.80;;;5.30;99.90;;;;;;5410221;26;20062;-73
2024/04/23 07:15:01;;;;;;;1.77;1.50;;;5.20;99.90;;;;;;5409272;26;20003;-73
2024/04/23 07:17:27;;;;;;;1.65;1.23;;;5.10;99.90;;;;;;5440514;26;19995;-74
2024/04/23 07:19:52;;;;;;;1.65;1.55;;;5.10;99.90;;;;;;5439111;26;20013;-73
2024/04/23 07:22:18;;;;;;;1.90;1.52;;;6.50;99.90;;;;;;5460926;26;20030;-74
2024/04/23 07:24:44;;;;;;;1.92;1.73;;;6.60;99.90;;;;;;5437115;26;20017;-73
2024/04/23 07:27:09;;;;;;;1.65;1.50;;;6.00;99.90;;;;;;5410091;26;19996;-73
2024/04/23 07:29:35;;;;;;;2.13;1.60;;;5.70;99.90;;;;;;5467476;26;20349;-73
2024/04/23 07:32:01;;;;;;;1.45;1.33;;;5.20;99.90;;;;;;5426404;26;20014;-73
2024/04/23 07:34:26;;;;;;;1.20;1.10;;;5.20;99.90;;;;;;5447219;26;20003;-73
2024/04/23 07:36:52;;;;;;;2.00;1.27;;;5.10;99.90;;;;;;5477880;26;19998;-73
2024/04/23 07:39:17;;;;;;;1.17;1.08;;;5.00;99.90;;;;;;5403753;26;19995;-73
2024/04/23 07:41:43;;;;;;;2.58;1.55;;;4.90;99.90;;;;;;5437720;26;20070;-73
2024/04/23 07:44:09;;;;;;;2.67;1.45;;;5.10;99.90;;;;;;5427011;26;19995;-72
2024/04/23 07:46:34;;;;;;;1.67;1.33;;;5.00;99.90;;;;;;5448058;26;20006;-73
2024/04/23 07:49:00;;;;;;;1.95;1.45;;;5.00;99.90;;;;;;5470975;26;20039;-72
2024/04/23 07:51:30;;;;;;;2.33;1.75;;;5.10;99.90;;;;;;5454531;26;20318;-72
2024/04/23 07:53:56;;;;;;;2.00;1.80;;;5.10;99.90;;;;;;5472113;26;19991;-73
2024/04/23 07:56:22;;;;;;;3.75;2.35;;;5.10;99.90;;;;;;5431958;26;20364;-72
2024/04/23 07:58:48;;;;;;;2.40;2.08;;;5.10;99.90;;;;;;5429476;26;20013;-72
2024/04/23 08:01:13;;;;;;;2.33;1.60;;;5.60;99.90;;;;;;5453433;26;19995;-72
2024/04/23 08:03:40;;;;;;;2.13;1.48;;;5.20;99.90;;;;;;5444908;26;20010;-73
2024/04/23 08:06:05;;;;;;;3.05;1.95;;;5.20;99.90;;;;;;5448409;26;19995;-73
2024/04/23 08:08:31;;;;;;;2.80;1.95;;;5.10;99.90;;;;;;5452047;26;20006;-73
2024/04/23 08:10:57;;;;;;;3.10;1.85;;;5.30;99.90;;;;;;5463004;26;19999;-73
2024/04/23 08:13:22;;;;;;;4.65;1.73;;;5.20;99.90;;;;;;5440878;26;19991;-73
2024/04/23 08:15:48;;;;;;;3.55;2.40;;;5.30;99.90;;;;;;5455031;26;20735;-73
2024/04/23 08:18:14;;;;;;;1.88;1.70;;;5.30;99.90;;;;;;5452613;26;20034;-73
2024/04/23 08:20:39;;;;;;;2.10;1.70;;;5.30;99.90;;;;;;5456679;26;20456;-73
2024/04/23 08:23:05;;;;;;;3.13;1.98;;;5.40;99.90;;;;;;5428765;26;20003;-73
2024/04/23 08:25:31;;;;;;;2.67;2.10;;;5.40;99.90;;;;;;5422963;26;20003;-73
2024/04/23 08:27:56;;;;;;;2.63;2.20;;;5.40;99.90;;;;;;5470193;26;20010;-73
2024/04/23 08:30:22;;;;;;;3.53;1.80;;;5.70;99.90;;;;;;5480059;26;20005;-73
2024/04/23 08:32:48;;;;;;;3.10;2.17;;;5.60;99.90;;;;;;5423470;26;19999;-73
2024/04/23 08:35:13;;;;;;;2.35;2.05;;;5.40;99.90;;;;;;5460787;26;20418;-73
2024/04/23 08:37:40;;;;;;;3.03;1.88;;;5.60;99.90;;;;;;5465182;26;19994;-73
2024/04/23 08:40:08;;;;;;;2.88;1.98;;;5.60;99.90;;;;;;5449217;26;20011;-73
2024/04/23 08:42:38;;;;;;;2.70;1.98;;;5.60;99.90;;;;;;5443624;26;20019;-72
2024/04/23 08:45:06;;;;;;;2.33;1.98;;;5.70;99.90;;;;;;5433737;26;20006;-72
2024/04/23 08:47:33;;;;;;;2.15;1.50;;;5.70;99.90;;;;;;5462875;26;19998;-72
2024/04/23 08:49:59;;;;;;;4.57;2.25;;;5.70;99.90;;;;;;5445819;26;19999;-72
2024/04/23 08:52:26;;;;;;;3.35;2.13;;;5.80;99.90;;;;;;5447933;26;19999;-72
2024/04/23 08:54:52;;;;;;;2.38;2.05;;;5.70;99.90;;;;;;5458058;26;20011;-74
2024/04/23 08:57:19;;;;;;;3.50;2.30;;;5.70;99.90;;;;;;5462524;26;19995;-73
2024/04/23 08:59:46;;;;;;;2.72;2.10;;;5.70;99.90;;;;;;5437240;26;20013;-73
2024/04/23 09:02:22;;;;;;;2.80;2.00;;;5.80;99.90;;;;;;5475800;26;19994;-74
2024/04/23 09:04:48;;;;;;;5.35;2.40;;;5.70;99.90;;;;;;5423390;26;20003;-73
2024/04/23 09:07:14;;;;;;;3.65;2.38;;;5.70;99.90;;;;;;5444208;26;20013;-73
2024/04/23 09:09:41;;;;;;;2.35;2.15;;;5.50;99.90;;;;;;5477799;26;19994;-73
2024/04/23 09:12:07;;;;;;;3.25;2.30;;;5.60;99.90;;;;;;5458998;26;20013;-73
2024/04/23 09:14:33;;;;;;;1.95;1.77;;;5.50;99.90;;;;;;5467936;26;20070;-73
2024/04/23 09:16:58;;;;;;;2.90;2.60;;;5.60;99.90;;;;;;5424993;26;20448;-73
2024/04/23 09:19:26;;;;;;;3.47;2.38;;;5.60;99.90;;;;;;5433312;26;19994;-73
2024/04/23 09:21:52;;;;;;;3.03;2.28;;;5.60;99.90;;;;;;5464214;26;20069;-73
2024/04/23 09:24:25;;;;;;;3.22;1.83;;;5.60;99.90;;;;;;5461784;26;20465;-73
2024/04/23 09:26:51;;;;;;;2.53;2.28;;;5.60;99.90;;;;;;5470248;26;20006;-73
2024/04/23 09:29:16;;;;;;;2.78;2.58;;;5.50;99.90;;;;;;5479579;26;19990;-73
2024/04/23 09:31:43;;;;;;;2.38;2.03;;;5.50;99.90;;;;;;5479161;26;20040;-73
2024/04/23 09:34:10;;;;;;;2.85;2.35;;;5.60;99.90;;;;;;5478451;26;20476;-73
2024/04/23 09:36:38;;;;;;;2.53;2.25;;;5.60;99.90;;;;;;5463624;26;20449;-73
2024/04/23 09:39:03;;;;;;;2.03;1.80;;;5.60;99.90;;;;;;5425068;26;20071;-73
2024/04/23 09:41:31;;;;;;;3.13;2.13;;;5.60;99.90;;;;;;5407095;26;20011;-73
2024/04/23 09:44:03;;;;;;;2.95;2.65;;;5.60;99.90;;;;;;5375687;26;19999;-73
2024/04/23 09:46:31;;;;;;;3.03;2.20;;;5.70;99.90;;;;;;5432014;26;20013;-73
2024/04/23 09:48:59;;;;;;;4.80;3.15;;;5.60;99.90;;;;;;5428290;26;20377;-73
2024/04/23 09:51:29;;;;;;;3.35;2.47;;;5.60;99.90;;;;;;5405132;26;20007;-73
2024/04/23 09:53:59;;;;;;;2.75;2.55;;;5.70;99.90;;;;;;5444857;26;20059;-73
2024/04/23 09:56:25;;;;;;;4.00;2.67;;;5.70;99.90;;;;;;5462068;26;19998;-73
2024/04/23 09:58:50;;;;;;;5.18;2.55;;;5.70;99.90;;;;;;5452263;26;20388;-73
2024/04/23 10:01:21;;;;;;;3.42;2.95;;;5.70;99.90;;;;;;5451480;26;20002;-73
2024/04/23 10:03:52;;;;;;;3.80;3.13;;;5.80;99.90;;;;;;5457385;26;19995;-73
2024/04/23 10:06:26;;;;;;;5.75;3.20;;;5.90;99.90;;;;;;5456737;26;19991;-73
2024/04/23 10:09:08;;;;;;;3.72;2.70;;;5.70;99.90;;;;;;5440981;26;19998;-73
2024/04/23 10:11:39;;;;;;;4.68;3.20;;;5.70;99.90;;;;;;5450740;26;20017;-73
2024/04/23 10:14:23;;;;;;;3.38;2.65;;;5.70;99.90;;;;;;5464122;26;20002;-73
2024/04/23 10:17:11;;;;;;;4.07;2.95;;;5.80;99.90;;;;;;5447304;26;19999;-73
2024/04/23 10:19:38;;;;;;;5.40;3.40;;;5.60;99.90;;;;;;5399239;26;20583;-73
2024/04/23 10:22:04;;;;;;;2.90;2.47;;;5.70;99.90;;;;;;5463592;26;20468;-73
2024/04/23 10:24:31;;;;;;;4.30;2.88;;;5.70;99.90;;;;;;5441915;26;19990;-73
2024/04/23 10:26:57;;;;;;;10.40;5.10;;;5.70;99.90;;;;;;5431541;26;19998;-73
2024/04/23 10:29:23;;;;;;;5.47;3.63;;;5.70;99.90;;;;;;5478887;26;20444;-73
2024/04/23 10:31:49;;;;;;;6.07;4.00;;;5.70;99.90;;;;;;5446418;26;19990;-73
2024/04/23 10:34:16;;;;;;;4.40;3.70;;;5.60;99.90;;;;;;5445868;26;20323;-73
2024/04/23 10:36:47;;;;;;;6.95;3.72;;;5.60;99.90;;;;;;5469087;26;19994;-73
2024/04/23 10:39:15;;;;;;;5.18;3.08;;;5.60;99.90;;;;;;5431684;26;20001;-73
2024/04/23 10:41:41;;;;;;;2.97;2.67;;;5.60;99.90;;;;;;5478370;26;19998;-73
2024/04/23 10:44:11;;;;;;;5.82;4.13;;;5.60;99.90;;;;;;5442006;26;20456;-73
2024/04/23 10:46:40;;;;;;;4.70;3.53;;;5.60;99.90;;;;;;5425370;26;19995;-73
2024/04/23 10:49:15;;;;;;;6.20;3.40;;;5.60;99.90;;;;;;5468092;26;19998;-73
2024/04/23 10:51:47;;;;;;;5.70;4.07;;;5.50;99.90;;;;;;5462892;26;19998;-73
2024/04/23 10:54:19;;;;;;;4.68;3.33;;;5.40;99.90;;;;;;5478586;26;20003;-73
2024/04/23 10:56:56;;;;;;;9.35;6.25;;;5.50;99.90;;;;;;5477737;26;20699;-73
2024/04/23 10:59:23;;;;;;;6.60;3.92;;;5.50;99.90;;;;;;5424009;26;20009;-74
2024/04/23 11:01:56;;;;;;;5.53;3.63;;;5.50;99.90;;;;;;5442628;26;20011;-73
2024/04/23 11:04:44;;;;;;;5.25;3.25;;;5.50;99.90;;;;;;5445031;26;20394;-76
2024/04/23 11:07:11;;;;;;;3.80;2.70;;;5.60;99.90;;;;;;5431630;26;20353;-79
2024/04/23 11:09:45;;;;;;;4.93;3.20;;;5.50;99.90;;;;;;5478931;26;20002;-77
2024/04/23 11:12:23;;;;;;;4.20;2.90;;;5.50;99.90;;;;;;5446009;26;20397;-76
2024/04/23 11:14:49;;;;;;;4.57;3.05;;;5.60;99.90;;;;;;5445516;26;19998;-75
2024/04/23 11:17:16;;;;;;;2.80;2.33;;;5.70;99.90;;;;;;5446313;26;20002;-77
2024/04/23 11:22:48;;;;;;;4.25;3.30;;;5.60;99.90;;;;;;5485576;21;20032;-79
2024/04/23 11:25:28;;;;;;;5.35;2.58;;;6.00;99.90;;;;;;5334744;26;20004;-75
2024/04/23 11:27:54;;;;;;;4.85;3.22;;;5.40;99.90;;;;;;5313810;26;20013;-74
2024/04/23 11:30:20;;;;;;;3.55;2.67;;;5.40;99.90;;;;;;5331366;26;20001;-78
2024/04/23 11:32:46;;;;;;;5.20;3.00;;;5.50;99.90;;;;;;5335284;26;20067;-79
2024/04/23 11:35:13;;;;;;;4.00;2.97;;;5.40;99.90;;;;;;5335649;26;19997;-77
2024/04/23 11:37:39;;;;;;;5.05;2.75;;;5.40;99.90;;;;;;5335801;26;19997;-76
2024/04/23 11:40:06;;;;;;;3.80;3.08;;;5.40;99.90;;;;;;5333901;26;20012;-76
2024/04/23 11:42:32;;;;;;;5.97;3.45;;;5.40;99.90;;;;;;5298472;26;20452;-75
2024/04/23 11:45:00;;;;;;;4.90;2.95;;;5.50;99.90;;;;;;5296364;26;20013;-77
2024/04/23 11:47:26;;;;;;;4.68;3.33;;;5.40;99.90;;;;;;5294292;26;20001;-78
2024/04/23 11:49:52;;;;;;;4.70;3.17;;;5.20;99.90;;;;;;5313530;26;20623;-78
2024/04/23 11:52:23;;;;;;;4.43;3.30;;;5.50;99.90;;;;;;5332079;26;20012;-77
2024/04/23 11:54:49;;;;;;;3.85;2.90;;;5.50;99.90;;;;;;5317731;26;20015;-76
2024/04/23 11:57:17;;;;;;;4.03;3.00;;;5.60;99.90;;;;;;5319009;26;20015;-74
2024/04/23 11:59:43;;;;;;;4.15;2.90;;;5.60;99.90;;;;;;5299078;26;20006;-77
2024/04/23 12:02:09;;;;;;;5.32;3.45;;;5.50;99.90;;;;;;5306783;26;20459;-74
2024/04/23 12:04:37;;;;;;;7.10;3.50;;;5.60;99.90;;;;;;5305003;26;20040;-79
2024/04/23 12:07:03;;;;;;;5.03;3.35;;;5.60;99.90;;;;;;5319909;26;20524;-79
2024/04/23 12:09:33;;;;;;;4.38;3.40;;;5.60;99.90;;;;;;5334301;26;20078;-78
2024/04/23 12:11:59;;;;;;;5.97;3.60;;;5.70;99.90;;;;;;5335702;26;20023;-78
2024/04/23 12:14:26;;;;;;;7.97;3.13;;;5.70;99.90;;;;;;5335183;26;20004;-78
2024/04/23 12:16:52;;;;;;;5.10;4.13;;;5.80;99.90;;;;;;5327200;26;19997;-75
2024/04/23 12:19:17;;;;;;;7.05;4.00;;;5.80;99.90;;;;;;5329236;26;20027;-78
2024/04/23 12:21:43;;;;;;;4.57;3.08;;;5.80;99.90;;;;;;5300255;27;19998;-77
2024/04/23 12:24:14;;;;;;;5.80;3.42;;;5.80;99.90;;;;;;5298369;27;19998;-77
2024/04/23 12:26:40;;;;;;;6.63;3.45;;;5.80;99.90;;;;;;5300733;26;20456;-77
2024/04/23 12:29:06;;;;;;;5.70;3.67;;;5.80;99.90;;;;;;5299226;27;20444;-78
2024/04/23 12:31:32;;;;;;;7.65;4.05;;;5.90;99.90;;;;;;5298579;27;20077;-77
2024/04/23 12:33:58;;;;;;;6.22;4.25;;;5.90;99.90;;;;;;5296656;26;20016;-78
2024/04/23 12:36:24;;;;;;;5.00;3.63;;;5.90;99.90;;;;;;5305916;26;19998;-78
2024/04/23 12:38:49;;;;;;;5.82;4.15;;;5.90;99.90;;;;;;5299131;26;20006;-76
2024/04/23 12:41:25;;;;;;;6.68;4.13;;;5.80;99.90;;;;;;5309813;26;19998;-77
2024/04/23 12:43:51;;;;;;;5.72;3.90;;;5.80;99.90;;;;;;5332074;26;20003;-73
2024/04/23 12:46:18;;;;;;;6.80;3.90;;;5.80;99.90;;;;;;5334578;26;19997;-74
2024/04/23 12:48:45;;;;;;;6.40;4.43;;;5.80;99.90;;;;;;5332605;26;19997;-75
2024/04/23 12:51:11;;;;;;;6.50;4.32;;;5.80;99.90;;;;;;5334449;26;19997;-75
2024/04/23 12:53:39;;;;;;;7.97;3.53;;;5.80;99.90;;;;;;5332454;26;20472;-75
2024/04/23 12:56:05;;;;;;;6.28;4.28;;;5.80;99.90;;;;;;5333541;26;20001;-72
2024/04/23 12:58:33;;;;;;;11.02;4.72;;;5.80;99.90;;;;;;5332423;26;20012;-74
2024/04/23 13:01:00;;;;;;;6.28;4.55;;;5.80;99.90;;;;;;5332078;26;20327;-76
2024/04/23 13:03:25;;;;;;;6.30;4.10;;;5.90;99.90;;;;;;5332331;26;20421;-76
2024/04/23 13:05:52;;;;;;;8.85;4.88;;;5.80;99.90;;;;;;5333852;26;20013;-80
2024/04/23 13:08:18;;;;;;;6.78;4.70;;;5.90;99.90;;;;;;5333561;26;19997;-79